sensor_id;sensor_type;location;lat;lon;timestamp;P1;durP1;ratioP1;P2;durP2;ratioP2
30872;SDS011;17579;42.690;2.586;2022-10-31T00:01:29;9.85;;;5.88;;
30872;SDS011;17579;42.690;2.586;2022-10-31T00:03:57;9.95;;;5.40;;
30872;SDS011;17579;42.690;2.586;2022-10-31T00:06:22;8.35;;;5.65;;
30872;SDS011;17579;42.690;2.586;2022-10-31T00:08:52;9.95;;;5.75;;
30872;SDS011;17579;42.690;2.586;2022-10-31T00:11:20;14.77;;;5.63;;
30872;SDS011;17579;42.690;2.586;2022-10-31T00:13:45;10.80;;;5.30;;
30872;SDS011;17579;42.690;2.586;2022-10-31T00:16:18;10.60;;;5.43;;
30872;SDS011;17579;42.690;2.586;2022-10-31T00:18:51;7.80;;;5.60;;
30872;SDS011;17579;42.690;2.586;2022-10-31T00:21:18;9.30;;;6.00;;
30872;SDS011;17579;42.690;2.586;2022-10-31T00:23:44;12.38;;;6.00;;
30872;SDS011;17579;42.690;2.586;2022-10-31T00:26:10;8.70;;;5.45;;
30872;SDS011;17579;42.690;2.586;2022-10-31T00:28:35;11.00;;;6.25;;
30872;SDS011;17579;42.690;2.586;2022-10-31T00:31:01;9.52;;;5.80;;
30872;SDS011;17579;42.690;2.586;2022-10-31T00:33:28;13.43;;;6.25;;
30872;SDS011;17579;42.690;2.586;2022-10-31T00:35:54;9.48;;;6.03;;
30872;SDS011;17579;42.690;2.586;2022-10-31T00:38:19;10.27;;;6.65;;
30872;SDS011;17579;42.690;2.586;2022-10-31T00:40:45;13.20;;;7.10;;
30872;SDS011;17579;42.690;2.586;2022-10-31T00:43:10;12.30;;;6.63;;
30872;SDS011;17579;42.690;2.586;2022-10-31T00:45:36;12.90;;;6.72;;
30872;SDS011;17579;42.690;2.586;2022-10-31T00:48:02;11.35;;;5.97;;
30872;SDS011;17579;42.690;2.586;2022-10-31T00:50:27;11.10;;;7.00;;
30872;SDS011;17579;42.690;2.586;2022-10-31T00:52:53;12.73;;;7.03;;
30872;SDS011;17579;42.690;2.586;2022-10-31T00:55:18;10.77;;;7.25;;
30872;SDS011;17579;42.690;2.586;2022-10-31T00:57:47;10.73;;;6.78;;
30872;SDS011;17579;42.690;2.586;2022-10-31T01:00:13;15.85;;;7.35;;
30872;SDS011;17579;42.690;2.586;2022-10-31T01:02:39;15.82;;;6.88;;
30872;SDS011;17579;42.690;2.586;2022-10-31T01:05:05;10.90;;;6.97;;
30872;SDS011;17579;42.690;2.586;2022-10-31T01:07:30;12.35;;;7.30;;
30872;SDS011;17579;42.690;2.586;2022-10-31T01:09:56;11.77;;;6.47;;
30872;SDS011;17579;42.690;2.586;2022-10-31T01:12:22;13.07;;;7.07;;
30872;SDS011;17579;42.690;2.586;2022-10-31T01:14:47;12.45;;;6.88;;
30872;SDS011;17579;42.690;2.586;2022-10-31T01:17:13;10.80;;;6.70;;
30872;SDS011;17579;42.690;2.586;2022-10-31T01:19:39;10.23;;;6.88;;
30872;SDS011;17579;42.690;2.586;2022-10-31T01:22:05;15.02;;;6.53;;
30872;SDS011;17579;42.690;2.586;2022-10-31T01:24:31;11.65;;;6.80;;
30872;SDS011;17579;42.690;2.586;2022-10-31T01:26:57;12.40;;;6.38;;
30872;SDS011;17579;42.690;2.586;2022-10-31T01:29:22;14.75;;;6.75;;
30872;SDS011;17579;42.690;2.586;2022-10-31T01:31:48;10.15;;;6.43;;
30872;SDS011;17579;42.690;2.586;2022-10-31T01:34:14;12.05;;;6.30;;
30872;SDS011;17579;42.690;2.586;2022-10-31T01:36:42;14.95;;;6.45;;
30872;SDS011;17579;42.690;2.586;2022-10-31T01:39:13;10.73;;;6.85;;
30872;SDS011;17579;42.690;2.586;2022-10-31T01:41:41;16.15;;;6.72;;
30872;SDS011;17579;42.690;2.586;2022-10-31T01:47:17;11.38;;;6.35;;
30872;SDS011;17579;42.690;2.586;2022-10-31T01:49:51;13.60;;;6.60;;
30872;SDS011;17579;42.690;2.586;2022-10-31T01:55:18;10.55;;;6.10;;
30872;SDS011;17579;42.690;2.586;2022-10-31T01:57:49;11.32;;;6.93;;
30872;SDS011;17579;42.690;2.586;2022-10-31T02:00:19;10.50;;;6.47;;
30872;SDS011;17579;42.690;2.586;2022-10-31T02:02:45;11.52;;;6.22;;
30872;SDS011;17579;42.690;2.586;2022-10-31T02:05:15;10.98;;;6.68;;
30872;SDS011;17579;42.690;2.586;2022-10-31T02:07:52;8.35;;;6.30;;
30872;SDS011;17579;42.690;2.586;2022-10-31T02:10:22;13.55;;;7.07;;
30872;SDS011;17579;42.690;2.586;2022-10-31T02:12:52;11.75;;;5.88;;
30872;SDS011;17579;42.690;2.586;2022-10-31T02:15:20;10.40;;;7.20;;
30872;SDS011;17579;42.690;2.586;2022-10-31T02:17:45;11.68;;;6.30;;
30872;SDS011;17579;42.690;2.586;2022-10-31T02:20:16;10.10;;;6.60;;
30872;SDS011;17579;42.690;2.586;2022-10-31T02:22:52;17.33;;;7.05;;
30872;SDS011;17579;42.690;2.586;2022-10-31T02:25:46;12.05;;;6.30;;
30872;SDS011;17579;42.690;2.586;2022-10-31T02:31:30;16.23;;;6.88;;
30872;SDS011;17579;42.690;2.586;2022-10-31T02:37:01;15.60;;;7.07;;
30872;SDS011;17579;42.690;2.586;2022-10-31T02:42:45;27.17;;;10.95;;
30872;SDS011;17579;42.690;2.586;2022-10-31T02:45:21;21.23;;;9.52;;
30872;SDS011;17579;42.690;2.586;2022-10-31T02:47:53;23.65;;;9.73;;
30872;SDS011;17579;42.690;2.586;2022-10-31T02:50:29;12.23;;;7.28;;
30872;SDS011;17579;42.690;2.586;2022-10-31T02:53:00;11.65;;;7.50;;
30872;SDS011;17579;42.690;2.586;2022-10-31T02:58:17;13.73;;;7.63;;
30872;SDS011;17579;42.690;2.586;2022-10-31T03:03:58;18.42;;;8.98;;
30872;SDS011;17579;42.690;2.586;2022-10-31T03:09:39;40.70;;;9.85;;
30872;SDS011;17579;42.690;2.586;2022-10-31T03:12:17;33.50;;;8.13;;
30872;SDS011;17579;42.690;2.586;2022-10-31T03:17:58;44.75;;;7.75;;
30872;SDS011;17579;42.690;2.586;2022-10-31T03:20:36;22.77;;;7.03;;
30872;SDS011;17579;42.690;2.586;2022-10-31T03:23:10;20.20;;;7.70;;
30872;SDS011;17579;42.690;2.586;2022-10-31T03:25:38;9.98;;;6.38;;
30872;SDS011;17579;42.690;2.586;2022-10-31T03:28:05;8.05;;;6.85;;
30872;SDS011;17579;42.690;2.586;2022-10-31T03:30:33;8.77;;;7.00;;
30872;SDS011;17579;42.690;2.586;2022-10-31T03:33:03;8.73;;;6.32;;
30872;SDS011;17579;42.690;2.586;2022-10-31T03:35:35;9.48;;;5.93;;
30872;SDS011;17579;42.690;2.586;2022-10-31T03:38:04;10.98;;;6.85;;
30872;SDS011;17579;42.690;2.586;2022-10-31T03:40:31;10.02;;;6.80;;
30872;SDS011;17579;42.690;2.586;2022-10-31T03:43:00;15.05;;;7.70;;
30872;SDS011;17579;42.690;2.586;2022-10-31T03:45:33;11.25;;;7.78;;
30872;SDS011;17579;42.690;2.586;2022-10-31T03:48:05;12.18;;;6.63;;
30872;SDS011;17579;42.690;2.586;2022-10-31T03:53:30;14.45;;;7.50;;
30872;SDS011;17579;42.690;2.586;2022-10-31T03:56:01;13.25;;;6.90;;
30872;SDS011;17579;42.690;2.586;2022-10-31T03:58:37;11.68;;;6.00;;
30872;SDS011;17579;42.690;2.586;2022-10-31T04:01:09;11.57;;;6.72;;
30872;SDS011;17579;42.690;2.586;2022-10-31T04:03:41;9.55;;;6.30;;
30872;SDS011;17579;42.690;2.586;2022-10-31T04:06:08;10.98;;;7.32;;
30872;SDS011;17579;42.690;2.586;2022-10-31T04:08:40;12.05;;;7.40;;
30872;SDS011;17579;42.690;2.586;2022-10-31T04:11:10;15.68;;;7.13;;
30872;SDS011;17579;42.690;2.586;2022-10-31T04:13:38;11.95;;;7.57;;
30872;SDS011;17579;42.690;2.586;2022-10-31T04:16:05;16.95;;;8.00;;
30872;SDS011;17579;42.690;2.586;2022-10-31T04:18:31;16.15;;;8.63;;
30872;SDS011;17579;42.690;2.586;2022-10-31T04:21:01;13.60;;;7.25;;
30872;SDS011;17579;42.690;2.586;2022-10-31T04:23:28;11.07;;;8.00;;
30872;SDS011;17579;42.690;2.586;2022-10-31T04:25:54;10.10;;;7.20;;
30872;SDS011;17579;42.690;2.586;2022-10-31T04:28:19;10.52;;;7.38;;
30872;SDS011;17579;42.690;2.586;2022-10-31T04:30:45;11.55;;;7.30;;
30872;SDS011;17579;42.690;2.586;2022-10-31T04:33:10;13.07;;;6.90;;
30872;SDS011;17579;42.690;2.586;2022-10-31T04:35:36;12.45;;;7.07;;
30872;SDS011;17579;42.690;2.586;2022-10-31T04:38:01;14.45;;;7.00;;
30872;SDS011;17579;42.690;2.586;2022-10-31T04:40:27;16.88;;;7.85;;
30872;SDS011;17579;42.690;2.586;2022-10-31T04:42:52;10.35;;;6.80;;
30872;SDS011;17579;42.690;2.586;2022-10-31T04:45:18;11.90;;;7.10;;
30872;SDS011;17579;42.690;2.586;2022-10-31T04:47:43;11.32;;;7.40;;
30872;SDS011;17579;42.690;2.586;2022-10-31T04:50:09;13.18;;;7.60;;
30872;SDS011;17579;42.690;2.586;2022-10-31T04:52:41;11.10;;;7.38;;
30872;SDS011;17579;42.690;2.586;2022-10-31T04:55:08;13.02;;;7.47;;
30872;SDS011;17579;42.690;2.586;2022-10-31T04:57:44;12.10;;;7.07;;
30872;SDS011;17579;42.690;2.586;2022-10-31T05:00:11;11.55;;;6.45;;
30872;SDS011;17579;42.690;2.586;2022-10-31T05:02:46;14.32;;;7.53;;
30872;SDS011;17579;42.690;2.586;2022-10-31T05:05:14;10.98;;;6.85;;
30872;SDS011;17579;42.690;2.586;2022-10-31T05:07:41;12.65;;;7.07;;
30872;SDS011;17579;42.690;2.586;2022-10-31T05:10:09;12.85;;;7.05;;
30872;SDS011;17579;42.690;2.586;2022-10-31T05:12:36;11.10;;;7.20;;
30872;SDS011;17579;42.690;2.586;2022-10-31T05:15:02;11.55;;;5.82;;
30872;SDS011;17579;42.690;2.586;2022-10-31T05:17:30;9.13;;;6.65;;
30872;SDS011;17579;42.690;2.586;2022-10-31T05:19:56;10.02;;;6.63;;
30872;SDS011;17579;42.690;2.586;2022-10-31T05:22:21;11.18;;;7.60;;
30872;SDS011;17579;42.690;2.586;2022-10-31T05:24:46;11.05;;;6.50;;
30872;SDS011;17579;42.690;2.586;2022-10-31T05:27:12;9.40;;;6.55;;
30872;SDS011;17579;42.690;2.586;2022-10-31T05:29:38;10.45;;;6.88;;
30872;SDS011;17579;42.690;2.586;2022-10-31T05:32:03;10.75;;;6.50;;
30872;SDS011;17579;42.690;2.586;2022-10-31T05:34:29;8.85;;;6.38;;
30872;SDS011;17579;42.690;2.586;2022-10-31T05:36:54;11.00;;;6.25;;
30872;SDS011;17579;42.690;2.586;2022-10-31T05:39:20;10.43;;;6.15;;
30872;SDS011;17579;42.690;2.586;2022-10-31T05:41:45;10.25;;;6.72;;
30872;SDS011;17579;42.690;2.586;2022-10-31T05:44:11;11.20;;;6.57;;
30872;SDS011;17579;42.690;2.586;2022-10-31T05:46:36;13.20;;;7.00;;
30872;SDS011;17579;42.690;2.586;2022-10-31T05:49:02;10.23;;;6.68;;
30872;SDS011;17579;42.690;2.586;2022-10-31T05:51:27;11.70;;;7.00;;
30872;SDS011;17579;42.690;2.586;2022-10-31T05:53:53;13.63;;;7.60;;
30872;SDS011;17579;42.690;2.586;2022-10-31T05:56:18;10.38;;;7.10;;
30872;SDS011;17579;42.690;2.586;2022-10-31T05:58:44;13.13;;;6.78;;
30872;SDS011;17579;42.690;2.586;2022-10-31T06:01:09;10.50;;;7.30;;
30872;SDS011;17579;42.690;2.586;2022-10-31T06:03:35;8.02;;;6.55;;
30872;SDS011;17579;42.690;2.586;2022-10-31T06:06:00;9.52;;;7.00;;
30872;SDS011;17579;42.690;2.586;2022-10-31T06:08:26;12.75;;;7.28;;
30872;SDS011;17579;42.690;2.586;2022-10-31T06:10:52;10.30;;;7.03;;
30872;SDS011;17579;42.690;2.586;2022-10-31T06:13:18;10.43;;;7.25;;
30872;SDS011;17579;42.690;2.586;2022-10-31T06:15:44;10.90;;;7.22;;
30872;SDS011;17579;42.690;2.586;2022-10-31T06:18:09;9.40;;;6.22;;
30872;SDS011;17579;42.690;2.586;2022-10-31T06:20:35;12.50;;;7.15;;
30872;SDS011;17579;42.690;2.586;2022-10-31T06:23:01;15.30;;;7.25;;
30872;SDS011;17579;42.690;2.586;2022-10-31T06:25:28;9.73;;;7.22;;
30872;SDS011;17579;42.690;2.586;2022-10-31T06:27:53;12.80;;;6.65;;
30872;SDS011;17579;42.690;2.586;2022-10-31T06:30:20;9.77;;;6.38;;
30872;SDS011;17579;42.690;2.586;2022-10-31T06:32:45;8.77;;;5.85;;
30872;SDS011;17579;42.690;2.586;2022-10-31T06:35:11;11.02;;;6.93;;
30872;SDS011;17579;42.690;2.586;2022-10-31T06:37:37;12.02;;;6.10;;
30872;SDS011;17579;42.690;2.586;2022-10-31T06:40:03;10.85;;;5.82;;
30872;SDS011;17579;42.690;2.586;2022-10-31T06:42:28;6.78;;;5.55;;
30872;SDS011;17579;42.690;2.586;2022-10-31T06:44:54;7.65;;;5.43;;
30872;SDS011;17579;42.690;2.586;2022-10-31T06:47:19;7.25;;;5.78;;
30872;SDS011;17579;42.690;2.586;2022-10-31T06:49:45;8.25;;;5.30;;
30872;SDS011;17579;42.690;2.586;2022-10-31T06:52:10;10.13;;;6.28;;
30872;SDS011;17579;42.690;2.586;2022-10-31T06:54:36;9.25;;;5.75;;
30872;SDS011;17579;42.690;2.586;2022-10-31T06:57:01;9.45;;;5.82;;
30872;SDS011;17579;42.690;2.586;2022-10-31T06:59:27;10.77;;;5.78;;
30872;SDS011;17579;42.690;2.586;2022-10-31T07:01:53;7.88;;;5.30;;
30872;SDS011;17579;42.690;2.586;2022-10-31T07:04:18;8.85;;;5.55;;
30872;SDS011;17579;42.690;2.586;2022-10-31T07:06:44;12.75;;;5.75;;
30872;SDS011;17579;42.690;2.586;2022-10-31T07:09:09;8.65;;;5.40;;
30872;SDS011;17579;42.690;2.586;2022-10-31T07:11:35;6.50;;;5.15;;
30872;SDS011;17579;42.690;2.586;2022-10-31T07:14:00;9.90;;;5.35;;
30872;SDS011;17579;42.690;2.586;2022-10-31T07:16:26;7.68;;;5.70;;
30872;SDS011;17579;42.690;2.586;2022-10-31T07:18:52;7.72;;;5.60;;
30872;SDS011;17579;42.690;2.586;2022-10-31T07:21:17;8.15;;;5.45;;
30872;SDS011;17579;42.690;2.586;2022-10-31T07:23:43;6.78;;;5.25;;
30872;SDS011;17579;42.690;2.586;2022-10-31T07:26:09;13.10;;;5.50;;
30872;SDS011;17579;42.690;2.586;2022-10-31T07:28:35;8.48;;;5.93;;
30872;SDS011;17579;42.690;2.586;2022-10-31T07:31:00;7.72;;;5.30;;
30872;SDS011;17579;42.690;2.586;2022-10-31T07:33:26;9.30;;;5.22;;
30872;SDS011;17579;42.690;2.586;2022-10-31T07:35:52;8.43;;;5.45;;
30872;SDS011;17579;42.690;2.586;2022-10-31T07:38:18;8.25;;;5.22;;
30872;SDS011;17579;42.690;2.586;2022-10-31T07:40:48;8.48;;;5.07;;
30872;SDS011;17579;42.690;2.586;2022-10-31T07:43:16;8.68;;;5.03;;
30872;SDS011;17579;42.690;2.586;2022-10-31T07:45:41;9.40;;;6.03;;
30872;SDS011;17579;42.690;2.586;2022-10-31T07:48:07;8.23;;;5.57;;
30872;SDS011;17579;42.690;2.586;2022-10-31T07:50:33;6.15;;;4.78;;
30872;SDS011;17579;42.690;2.586;2022-10-31T07:53:03;10.30;;;5.60;;
30872;SDS011;17579;42.690;2.586;2022-10-31T07:55:31;7.60;;;4.75;;
30872;SDS011;17579;42.690;2.586;2022-10-31T07:57:58;6.95;;;4.80;;
30872;SDS011;17579;42.690;2.586;2022-10-31T08:00:25;8.75;;;5.38;;
30872;SDS011;17579;42.690;2.586;2022-10-31T08:03:01;8.75;;;4.90;;
30872;SDS011;17579;42.690;2.586;2022-10-31T08:05:29;9.10;;;5.18;;
30872;SDS011;17579;42.690;2.586;2022-10-31T08:07:55;6.57;;;5.13;;
30872;SDS011;17579;42.690;2.586;2022-10-31T08:10:22;10.00;;;5.70;;
30872;SDS011;17579;42.690;2.586;2022-10-31T08:13:01;8.88;;;5.55;;
30872;SDS011;17579;42.690;2.586;2022-10-31T08:15:29;9.80;;;5.80;;
30872;SDS011;17579;42.690;2.586;2022-10-31T08:17:55;7.82;;;4.93;;
30872;SDS011;17579;42.690;2.586;2022-10-31T08:20:20;8.88;;;5.03;;
30872;SDS011;17579;42.690;2.586;2022-10-31T08:22:53;7.35;;;4.72;;
30872;SDS011;17579;42.690;2.586;2022-10-31T08:25:20;7.75;;;4.93;;
30872;SDS011;17579;42.690;2.586;2022-10-31T08:27:52;8.38;;;5.53;;
30872;SDS011;17579;42.690;2.586;2022-10-31T08:30:20;12.90;;;5.22;;
30872;SDS011;17579;42.690;2.586;2022-10-31T08:32:46;9.77;;;4.50;;
30872;SDS011;17579;42.690;2.586;2022-10-31T08:35:12;12.77;;;5.03;;
30872;SDS011;17579;42.690;2.586;2022-10-31T08:37:39;8.93;;;3.97;;
30872;SDS011;17579;42.690;2.586;2022-10-31T08:40:04;8.45;;;4.47;;
30872;SDS011;17579;42.690;2.586;2022-10-31T08:42:31;6.05;;;4.40;;
30872;SDS011;17579;42.690;2.586;2022-10-31T08:44:57;6.82;;;4.45;;
30872;SDS011;17579;42.690;2.586;2022-10-31T08:47:23;6.35;;;4.32;;
30872;SDS011;17579;42.690;2.586;2022-10-31T08:49:48;6.28;;;4.30;;
30872;SDS011;17579;42.690;2.586;2022-10-31T08:52:14;8.70;;;5.22;;
30872;SDS011;17579;42.690;2.586;2022-10-31T08:54:41;8.23;;;4.43;;
30872;SDS011;17579;42.690;2.586;2022-10-31T08:57:06;9.02;;;5.22;;
30872;SDS011;17579;42.690;2.586;2022-10-31T08:59:32;7.68;;;4.55;;
30872;SDS011;17579;42.690;2.586;2022-10-31T09:01:57;7.05;;;4.55;;
30872;SDS011;17579;42.690;2.586;2022-10-31T09:04:23;4.80;;;4.30;;
30872;SDS011;17579;42.690;2.586;2022-10-31T09:06:48;9.40;;;4.50;;
30872;SDS011;17579;42.690;2.586;2022-10-31T09:09:14;8.80;;;4.95;;
30872;SDS011;17579;42.690;2.586;2022-10-31T09:11:39;8.40;;;4.45;;
30872;SDS011;17579;42.690;2.586;2022-10-31T09:14:05;12.45;;;4.78;;
30872;SDS011;17579;42.690;2.586;2022-10-31T09:16:31;5.55;;;4.40;;
30872;SDS011;17579;42.690;2.586;2022-10-31T09:18:56;6.90;;;4.47;;
30872;SDS011;17579;42.690;2.586;2022-10-31T09:21:22;10.65;;;4.75;;
30872;SDS011;17579;42.690;2.586;2022-10-31T09:23:47;7.30;;;4.57;;
30872;SDS011;17579;42.690;2.586;2022-10-31T09:26:13;7.65;;;4.00;;
30872;SDS011;17579;42.690;2.586;2022-10-31T09:28:38;9.75;;;4.07;;
30872;SDS011;17579;42.690;2.586;2022-10-31T09:31:04;8.23;;;4.45;;
30872;SDS011;17579;42.690;2.586;2022-10-31T09:33:30;4.97;;;3.78;;
30872;SDS011;17579;42.690;2.586;2022-10-31T09:35:57;9.85;;;4.75;;
30872;SDS011;17579;42.690;2.586;2022-10-31T09:38:23;5.07;;;4.50;;
30872;SDS011;17579;42.690;2.586;2022-10-31T09:41:01;6.05;;;4.28;;
30872;SDS011;17579;42.690;2.586;2022-10-31T09:43:52;6.72;;;4.40;;
30872;SDS011;17579;42.690;2.586;2022-10-31T09:52:40;4.70;;;3.67;;
30872;SDS011;17579;42.690;2.586;2022-10-31T09:55:19;6.20;;;3.40;;
30872;SDS011;17579;42.690;2.586;2022-10-31T09:57:51;9.02;;;4.20;;
30872;SDS011;17579;42.690;2.586;2022-10-31T10:00:19;5.80;;;3.80;;
30872;SDS011;17579;42.690;2.586;2022-10-31T10:02:51;9.55;;;3.55;;
30872;SDS011;17579;42.690;2.586;2022-10-31T10:05:24;4.82;;;3.42;;
30872;SDS011;17579;42.690;2.586;2022-10-31T10:08:10;7.15;;;3.33;;
30872;SDS011;17579;42.690;2.586;2022-10-31T10:16:46;6.65;;;3.92;;
30872;SDS011;17579;42.690;2.586;2022-10-31T10:25:15;7.53;;;3.78;;
30872;SDS011;17579;42.690;2.586;2022-10-31T10:31:02;9.38;;;3.42;;
30872;SDS011;17579;42.690;2.586;2022-10-31T10:33:33;5.05;;;3.13;;
30872;SDS011;17579;42.690;2.586;2022-10-31T10:36:05;5.85;;;3.78;;
30872;SDS011;17579;42.690;2.586;2022-10-31T10:38:48;4.88;;;3.53;;
30872;SDS011;17579;42.690;2.586;2022-10-31T10:41:19;8.38;;;4.15;;
30872;SDS011;17579;42.690;2.586;2022-10-31T10:43:48;5.53;;;3.60;;
30872;SDS011;17579;42.690;2.586;2022-10-31T10:46:19;7.05;;;3.75;;
30872;SDS011;17579;42.690;2.586;2022-10-31T10:52:21;6.82;;;3.65;;
30872;SDS011;17579;42.690;2.586;2022-10-31T10:55:13;6.97;;;4.18;;
30872;SDS011;17579;42.690;2.586;2022-10-31T10:58:02;8.45;;;3.60;;
30872;SDS011;17579;42.690;2.586;2022-10-31T11:00:40;4.72;;;3.47;;
30872;SDS011;17579;42.690;2.586;2022-10-31T11:03:08;7.82;;;3.75;;
30872;SDS011;17579;42.690;2.586;2022-10-31T11:08:31;6.63;;;3.80;;
30872;SDS011;17579;42.690;2.586;2022-10-31T11:16:39;5.55;;;3.67;;
30872;SDS011;17579;42.690;2.586;2022-10-31T11:19:13;4.15;;;3.75;;
30872;SDS011;17579;42.690;2.586;2022-10-31T11:21:46;9.77;;;4.55;;
30872;SDS011;17579;42.690;2.586;2022-10-31T11:24:17;5.78;;;3.95;;
30872;SDS011;17579;42.690;2.586;2022-10-31T11:26:45;7.15;;;3.38;;
30872;SDS011;17579;42.690;2.586;2022-10-31T11:29:23;6.47;;;3.72;;
30872;SDS011;17579;42.690;2.586;2022-10-31T11:31:51;5.63;;;3.15;;
30872;SDS011;17579;42.690;2.586;2022-10-31T11:34:27;9.52;;;3.58;;
30872;SDS011;17579;42.690;2.586;2022-10-31T11:37:18;9.25;;;3.83;;
30872;SDS011;17579;42.690;2.586;2022-10-31T11:39:51;6.97;;;3.35;;
30872;SDS011;17579;42.690;2.586;2022-10-31T11:42:20;9.75;;;4.05;;
30872;SDS011;17579;42.690;2.586;2022-10-31T11:44:48;6.70;;;3.97;;
30872;SDS011;17579;42.690;2.586;2022-10-31T11:47:16;3.67;;;3.03;;
30872;SDS011;17579;42.690;2.586;2022-10-31T11:49:46;8.23;;;3.38;;
30872;SDS011;17579;42.690;2.586;2022-10-31T11:52:20;6.15;;;3.40;;
30872;SDS011;17579;42.690;2.586;2022-10-31T11:55:14;7.72;;;3.75;;
30872;SDS011;17579;42.690;2.586;2022-10-31T11:57:50;6.00;;;3.70;;
30872;SDS011;17579;42.690;2.586;2022-10-31T12:00:30;7.43;;;3.50;;
30872;SDS011;17579;42.690;2.586;2022-10-31T12:06:12;6.10;;;3.20;;
30872;SDS011;17579;42.690;2.586;2022-10-31T12:08:42;9.52;;;3.25;;
30872;SDS011;17579;42.690;2.586;2022-10-31T12:14:08;5.90;;;3.17;;
30872;SDS011;17579;42.690;2.586;2022-10-31T12:16:51;8.40;;;3.22;;
30872;SDS011;17579;42.690;2.586;2022-10-31T12:19:27;4.07;;;3.10;;
30872;SDS011;17579;42.690;2.586;2022-10-31T12:25:00;6.07;;;3.33;;
30872;SDS011;17579;42.690;2.586;2022-10-31T12:30:51;8.60;;;3.17;;
30872;SDS011;17579;42.690;2.586;2022-10-31T12:39:33;5.38;;;3.35;;
30872;SDS011;17579;42.690;2.586;2022-10-31T12:54:37;6.28;;;2.95;;
30872;SDS011;17579;42.690;2.586;2022-10-31T12:57:17;8.02;;;3.08;;
30872;SDS011;17579;42.690;2.586;2022-10-31T13:02:48;12.35;;;4.15;;
30872;SDS011;17579;42.690;2.586;2022-10-31T13:05:31;5.28;;;2.92;;
30872;SDS011;17579;42.690;2.586;2022-10-31T13:08:03;4.95;;;3.28;;
30872;SDS011;17579;42.690;2.586;2022-10-31T13:10:49;7.70;;;3.00;;
30872;SDS011;17579;42.690;2.586;2022-10-31T13:13:33;6.13;;;3.25;;
30872;SDS011;17579;42.690;2.586;2022-10-31T13:21:42;6.88;;;2.95;;
30872;SDS011;17579;42.690;2.586;2022-10-31T13:24:25;6.65;;;3.15;;
30872;SDS011;17579;42.690;2.586;2022-10-31T13:27:03;6.70;;;3.53;;
30872;SDS011;17579;42.690;2.586;2022-10-31T13:29:44;11.35;;;4.25;;
30872;SDS011;17579;42.690;2.586;2022-10-31T13:32:41;6.53;;;3.15;;
30872;SDS011;17579;42.690;2.586;2022-10-31T13:38:05;7.97;;;3.20;;
30872;SDS011;17579;42.690;2.586;2022-10-31T13:40:50;6.15;;;3.42;;
30872;SDS011;17579;42.690;2.586;2022-10-31T13:43:28;7.25;;;3.53;;
30872;SDS011;17579;42.690;2.586;2022-10-31T13:48:51;7.18;;;3.60;;
30872;SDS011;17579;42.690;2.586;2022-10-31T13:51:24;5.97;;;3.40;;
30872;SDS011;17579;42.690;2.586;2022-10-31T13:56:49;7.63;;;3.13;;
30872;SDS011;17579;42.690;2.586;2022-10-31T13:59:18;8.73;;;3.40;;
30872;SDS011;17579;42.690;2.586;2022-10-31T14:02:12;7.93;;;3.42;;
30872;SDS011;17579;42.690;2.586;2022-10-31T14:04:50;9.95;;;3.42;;
30872;SDS011;17579;42.690;2.586;2022-10-31T14:07:23;9.52;;;3.00;;
30872;SDS011;17579;42.690;2.586;2022-10-31T14:09:57;6.97;;;3.58;;
30872;SDS011;17579;42.690;2.586;2022-10-31T14:31:59;8.57;;;3.60;;
30872;SDS011;17579;42.690;2.586;2022-10-31T14:34:58;8.20;;;3.58;;
30872;SDS011;17579;42.690;2.586;2022-10-31T14:46:17;9.77;;;3.40;;
30872;SDS011;17579;42.690;2.586;2022-10-31T14:49:04;9.82;;;4.30;;
30872;SDS011;17579;42.690;2.586;2022-10-31T14:51:47;8.18;;;3.08;;
30872;SDS011;17579;42.690;2.586;2022-10-31T14:54:15;7.65;;;3.40;;
30872;SDS011;17579;42.690;2.586;2022-10-31T14:56:49;6.50;;;3.28;;
30872;SDS011;17579;42.690;2.586;2022-10-31T14:59:20;7.82;;;3.95;;
30872;SDS011;17579;42.690;2.586;2022-10-31T15:01:53;6.97;;;3.45;;
30872;SDS011;17579;42.690;2.586;2022-10-31T15:04:24;6.30;;;3.28;;
30872;SDS011;17579;42.690;2.586;2022-10-31T15:09:41;6.18;;;3.33;;
30872;SDS011;17579;42.690;2.586;2022-10-31T15:14:54;8.70;;;3.80;;
30872;SDS011;17579;42.690;2.586;2022-10-31T15:17:21;8.60;;;3.40;;
30872;SDS011;17579;42.690;2.586;2022-10-31T15:19:48;6.80;;;3.28;;
30872;SDS011;17579;42.690;2.586;2022-10-31T15:22:19;9.27;;;3.95;;
30872;SDS011;17579;42.690;2.586;2022-10-31T15:24:48;8.65;;;3.72;;
30872;SDS011;17579;42.690;2.586;2022-10-31T15:27:21;8.38;;;3.03;;
30872;SDS011;17579;42.690;2.586;2022-10-31T15:29:55;8.68;;;3.30;;
30872;SDS011;17579;42.690;2.586;2022-10-31T15:32:28;9.57;;;3.30;;
30872;SDS011;17579;42.690;2.586;2022-10-31T15:34:55;8.70;;;3.40;;
30872;SDS011;17579;42.690;2.586;2022-10-31T15:37:22;8.80;;;3.00;;
30872;SDS011;17579;42.690;2.586;2022-10-31T15:39:50;7.63;;;3.33;;
30872;SDS011;17579;42.690;2.586;2022-10-31T15:42:23;7.80;;;3.15;;
30872;SDS011;17579;42.690;2.586;2022-10-31T15:47:58;10.40;;;3.20;;
30872;SDS011;17579;42.690;2.586;2022-10-31T15:50:41;6.22;;;3.65;;
30872;SDS011;17579;42.690;2.586;2022-10-31T15:53:19;17.52;;;4.00;;
30872;SDS011;17579;42.690;2.586;2022-10-31T15:55:56;4.93;;;3.10;;
30872;SDS011;17579;42.690;2.586;2022-10-31T15:58:24;10.05;;;3.97;;
30872;SDS011;17579;42.690;2.586;2022-10-31T16:01:02;7.38;;;3.10;;
30872;SDS011;17579;42.690;2.586;2022-10-31T16:03:30;7.40;;;3.90;;
30872;SDS011;17579;42.690;2.586;2022-10-31T16:05:58;12.18;;;3.30;;
30872;SDS011;17579;42.690;2.586;2022-10-31T16:08:32;11.43;;;3.40;;
30872;SDS011;17579;42.690;2.586;2022-10-31T16:16:51;7.18;;;4.20;;
30872;SDS011;17579;42.690;2.586;2022-10-31T16:19:27;6.30;;;2.95;;
30872;SDS011;17579;42.690;2.586;2022-10-31T16:21:56;9.38;;;4.00;;
30872;SDS011;17579;42.690;2.586;2022-10-31T16:27:26;7.35;;;3.42;;
30872;SDS011;17579;42.690;2.586;2022-10-31T16:29:56;9.43;;;4.03;;
30872;SDS011;17579;42.690;2.586;2022-10-31T16:35:34;8.70;;;3.97;;
30872;SDS011;17579;42.690;2.586;2022-10-31T16:38:01;5.07;;;3.85;;
30872;SDS011;17579;42.690;2.586;2022-10-31T16:40:27;9.77;;;3.78;;
30872;SDS011;17579;42.690;2.586;2022-10-31T16:42:53;5.13;;;3.60;;
30872;SDS011;17579;42.690;2.586;2022-10-31T16:45:22;6.75;;;3.50;;
30872;SDS011;17579;42.690;2.586;2022-10-31T16:47:50;9.02;;;3.38;;
30872;SDS011;17579;42.690;2.586;2022-10-31T16:50:24;8.48;;;3.00;;
30872;SDS011;17579;42.690;2.586;2022-10-31T16:52:51;6.72;;;3.78;;
30872;SDS011;17579;42.690;2.586;2022-10-31T16:55:17;9.98;;;3.53;;
30872;SDS011;17579;42.690;2.586;2022-10-31T16:57:46;6.78;;;3.70;;
30872;SDS011;17579;42.690;2.586;2022-10-31T17:00:18;14.32;;;3.97;;
30872;SDS011;17579;42.690;2.586;2022-10-31T17:02:47;12.88;;;3.45;;
30872;SDS011;17579;42.690;2.586;2022-10-31T17:05:16;6.40;;;3.28;;
30872;SDS011;17579;42.690;2.586;2022-10-31T17:07:43;7.82;;;3.50;;
30872;SDS011;17579;42.690;2.586;2022-10-31T17:10:09;11.55;;;3.90;;
30872;SDS011;17579;42.690;2.586;2022-10-31T17:12:36;8.95;;;4.18;;
30872;SDS011;17579;42.690;2.586;2022-10-31T17:15:05;12.32;;;4.07;;
30872;SDS011;17579;42.690;2.586;2022-10-31T17:17:39;5.95;;;2.90;;
30872;SDS011;17579;42.690;2.586;2022-10-31T17:20:10;7.25;;;3.20;;
30872;SDS011;17579;42.690;2.586;2022-10-31T17:22:51;6.35;;;2.97;;
30872;SDS011;17579;42.690;2.586;2022-10-31T17:25:19;10.73;;;3.42;;
30872;SDS011;17579;42.690;2.586;2022-10-31T17:27:48;9.52;;;3.78;;
30872;SDS011;17579;42.690;2.586;2022-10-31T17:30:14;10.65;;;3.13;;
30872;SDS011;17579;42.690;2.586;2022-10-31T17:32:42;9.52;;;4.07;;
30872;SDS011;17579;42.690;2.586;2022-10-31T17:35:09;13.73;;;3.85;;
30872;SDS011;17579;42.690;2.586;2022-10-31T17:37:37;7.63;;;3.35;;
30872;SDS011;17579;42.690;2.586;2022-10-31T17:40:03;8.50;;;4.10;;